createdAt,value
2023-08-20T00:02:20.352Z,1.30
2023-08-20T00:04:47.599Z,1.10
2023-08-20T00:07:14.901Z,1.20
2023-08-20T00:09:42.496Z,1.00
2023-08-20T00:12:08.990Z,1.48
2023-08-20T00:14:54.618Z,1.08
2023-08-20T00:17:21.673Z,1.35
2023-08-20T00:19:48.872Z,1.20
2023-08-20T00:22:15.867Z,1.55
2023-08-20T00:24:42.607Z,1.73
2023-08-20T00:27:09.104Z,1.60
2023-08-20T00:29:35.588Z,1.23
2023-08-20T00:32:02.127Z,1.33
2023-08-20T00:34:28.646Z,1.90
2023-08-20T00:36:55.134Z,1.25
2023-08-20T00:39:21.660Z,1.20
2023-08-20T00:41:48.146Z,1.27
2023-08-20T00:44:15.189Z,1.02
2023-08-20T00:46:41.903Z,1.33
2023-08-20T00:49:08.402Z,1.58
2023-08-20T00:51:35.132Z,1.00
2023-08-20T00:54:02.160Z,1.00
2023-08-20T00:56:28.787Z,1.52
2023-08-20T00:58:56.020Z,1.55
2023-08-20T01:01:23.140Z,1.50
2023-08-20T01:03:50.119Z,1.10
2023-08-20T01:06:35.089Z,1.10
2023-08-20T01:09:16.939Z,1.50
2023-08-20T01:11:48.222Z,1.10
2023-08-20T01:14:17.986Z,1.50
2023-08-20T01:16:45.400Z,0.98
2023-08-20T01:19:16.491Z,1.27
2023-08-20T01:21:49.060Z,1.30
2023-08-20T01:24:38.309Z,1.20
2023-08-20T01:27:23.339Z,1.05
2023-08-20T01:29:50.323Z,1.20
2023-08-20T01:32:17.654Z,1.83
2023-08-20T01:34:44.215Z,1.23
2023-08-20T01:37:10.889Z,1.15
2023-08-20T01:39:37.437Z,1.38
2023-08-20T01:42:04.085Z,1.70
2023-08-20T01:44:30.662Z,1.42
2023-08-20T01:46:57.266Z,1.20
2023-08-20T01:49:23.799Z,1.33
2023-08-20T01:51:50.346Z,1.13
2023-08-20T01:54:16.928Z,0.93
2023-08-20T01:56:43.470Z,1.23
2023-08-20T01:59:09.965Z,1.48
2023-08-20T02:01:36.563Z,1.30
2023-08-20T02:04:03.317Z,1.20
2023-08-20T02:06:29.816Z,1.73
2023-08-20T02:08:56.316Z,1.20
2023-08-20T02:11:22.836Z,1.20
2023-08-20T02:13:49.332Z,1.58
2023-08-20T02:16:17.612Z,1.40
2023-08-20T02:18:44.175Z,1.50
2023-08-20T02:21:10.675Z,1.67
2023-08-20T02:23:37.194Z,1.30
2023-08-20T02:26:03.782Z,1.50
2023-08-20T02:28:30.446Z,1.42
2023-08-20T02:30:58.699Z,1.33
2023-08-20T02:33:25.419Z,1.85
2023-08-20T02:35:51.948Z,1.88
2023-08-20T02:38:18.433Z,1.45
2023-08-20T02:40:44.924Z,2.28
2023-08-20T02:43:11.498Z,2.17
2023-08-20T02:45:44.549Z,2.15
2023-08-20T02:48:11.669Z,1.90
2023-08-20T02:50:38.435Z,1.45
2023-08-20T02:53:05.082Z,1.73
2023-08-20T02:55:31.923Z,1.42
2023-08-20T02:57:58.691Z,2.22
2023-08-20T03:00:25.281Z,1.80
2023-08-20T03:02:51.945Z,1.95
2023-08-20T03:05:18.558Z,1.85
2023-08-20T03:07:45.562Z,1.52
2023-08-20T03:10:12.794Z,1.40
2023-08-20T03:12:39.325Z,1.85
2023-08-20T03:15:06.073Z,1.90
2023-08-20T03:17:32.735Z,1.60
2023-08-20T03:20:00.269Z,1.40
2023-08-20T03:22:27.464Z,1.50
2023-08-20T03:24:54.582Z,1.50
2023-08-20T03:27:21.194Z,1.45
2023-08-20T03:29:47.741Z,1.88
2023-08-20T03:32:14.349Z,1.20
2023-08-20T03:34:40.889Z,2.72
2023-08-20T03:37:07.734Z,2.25
2023-08-20T03:39:34.272Z,2.30
2023-08-20T03:42:00.779Z,1.70
2023-08-20T03:44:27.341Z,1.60
2023-08-20T03:46:53.934Z,1.40
2023-08-20T03:49:20.619Z,1.95
2023-08-20T03:51:47.173Z,2.00
2023-08-20T03:54:13.702Z,1.70
2023-08-20T03:56:40.235Z,2.00
2023-08-20T03:59:07.050Z,1.92
2023-08-20T04:01:33.856Z,1.20
2023-08-20T04:04:01.391Z,2.22
2023-08-20T04:06:27.923Z,2.10
2023-08-20T04:08:54.505Z,1.98
2023-08-20T04:11:21.014Z,2.05
2023-08-20T04:13:47.515Z,1.98
2023-08-20T04:16:14.857Z,1.65
2023-08-20T04:18:41.460Z,1.88
2023-08-20T04:21:08.484Z,1.23
2023-08-20T04:23:34.976Z,1.63
2023-08-20T04:26:01.538Z,1.70
2023-08-20T04:28:28.027Z,1.67
2023-08-20T04:30:55.653Z,1.48
2023-08-20T04:33:22.354Z,1.60
2023-08-20T04:35:51.870Z,1.80
2023-08-20T04:38:18.525Z,1.70
2023-08-20T04:40:48.717Z,2.10
2023-08-20T04:43:15.454Z,1.70
2023-08-20T04:45:42.404Z,1.88
2023-08-20T04:48:09.087Z,1.60
2023-08-20T04:50:35.869Z,2.00
2023-08-20T04:53:02.433Z,1.60
2023-08-20T04:55:29.231Z,1.77
2023-08-20T04:57:55.791Z,2.40
2023-08-20T05:00:22.946Z,2.20
2023-08-20T05:02:49.723Z,1.30
2023-08-20T05:05:16.495Z,2.50
2023-08-20T05:07:43.045Z,2.25
2023-08-20T05:10:09.911Z,2.17
2023-08-20T05:12:37.140Z,1.70
2023-08-20T05:15:04.213Z,1.65
2023-08-20T05:17:30.718Z,1.45
2023-08-20T05:19:57.320Z,2.85
2023-08-20T05:22:23.865Z,1.95
2023-08-20T05:24:50.355Z,1.80
2023-08-20T05:27:18.565Z,2.35
2023-08-20T05:29:45.228Z,2.30
2023-08-20T05:32:11.878Z,1.80
2023-08-20T05:34:38.614Z,1.80
2023-08-20T05:37:05.258Z,1.63
2023-08-20T05:39:37.710Z,1.90
2023-08-20T05:42:04.446Z,2.30
2023-08-20T05:44:30.951Z,2.10
2023-08-20T05:46:57.525Z,1.98
2023-08-20T05:49:24.175Z,2.00
2023-08-20T05:51:50.722Z,2.22
2023-08-20T05:54:17.320Z,1.98
2023-08-20T05:56:43.810Z,2.17
2023-08-20T05:59:10.292Z,2.25
2023-08-20T06:01:36.828Z,1.65
2023-08-20T06:04:03.537Z,1.52
2023-08-20T06:06:30.357Z,1.58
2023-08-20T06:09:08.381Z,1.83
2023-08-20T06:11:36.028Z,1.90
2023-08-20T06:14:02.591Z,2.30
2023-08-20T06:16:29.196Z,1.85
2023-08-20T06:18:56.961Z,2.05
2023-08-20T06:21:23.770Z,2.28
2023-08-20T06:23:50.290Z,1.95
2023-08-20T06:26:16.782Z,2.20
2023-08-20T06:28:43.317Z,2.78
2023-08-20T06:31:09.943Z,2.08
2023-08-20T06:33:36.467Z,2.53
2023-08-20T06:36:03.008Z,2.15
2023-08-20T06:38:29.540Z,2.30
2023-08-20T06:40:56.900Z,2.30
2023-08-20T06:43:23.434Z,1.42
2023-08-20T06:45:52.353Z,2.33
2023-08-20T06:48:21.208Z,2.47
2023-08-20T06:50:47.789Z,1.90
2023-08-20T06:53:14.270Z,1.70
2023-08-20T06:55:40.789Z,1.75
2023-08-20T06:58:07.382Z,2.17
2023-08-20T07:00:33.904Z,1.98
2023-08-20T07:03:00.555Z,1.63
2023-08-20T07:05:27.177Z,2.03
2023-08-20T07:07:53.801Z,1.75
2023-08-20T07:10:20.338Z,1.23
2023-08-20T07:12:46.987Z,1.50
2023-08-20T07:15:13.518Z,1.70
2023-08-20T07:17:40.199Z,1.83
2023-08-20T07:20:07.431Z,1.10
2023-08-20T07:22:33.971Z,1.65
2023-08-20T07:25:00.542Z,1.75
2023-08-20T07:27:27.076Z,1.85
2023-08-20T07:29:53.572Z,1.60
2023-08-20T07:32:20.169Z,1.55
2023-08-20T07:34:46.854Z,1.40
2023-08-20T07:37:13.369Z,1.60
2023-08-20T07:39:41.136Z,1.60
2023-08-20T07:42:07.768Z,1.23
2023-08-20T07:44:34.368Z,1.38
2023-08-20T07:47:00.990Z,1.40
2023-08-20T07:49:27.562Z,1.50
2023-08-20T07:51:55.671Z,1.10
2023-08-20T07:54:22.290Z,1.00
2023-08-20T07:56:48.804Z,1.38
2023-08-20T07:59:15.319Z,0.88
2023-08-20T08:01:41.840Z,1.08
2023-08-20T08:04:08.661Z,1.63
2023-08-20T08:06:35.235Z,1.10
2023-08-20T08:09:22.011Z,1.35
2023-08-20T08:11:49.008Z,0.88
2023-08-20T08:14:15.745Z,0.93
2023-08-20T08:16:42.366Z,0.98
2023-08-20T08:19:09.012Z,0.80
2023-08-20T08:21:35.537Z,1.00
2023-08-20T08:24:02.081Z,1.13
2023-08-20T08:26:28.588Z,1.10
2023-08-20T08:28:55.110Z,0.80
2023-08-20T08:31:21.674Z,1.08
2023-08-20T08:33:48.399Z,0.95
2023-08-20T08:36:16.428Z,1.30
2023-08-20T08:38:42.961Z,0.70
2023-08-20T08:41:11.255Z,0.90
2023-08-20T08:43:38.790Z,1.08
2023-08-20T08:46:07.575Z,0.90
2023-08-20T08:48:34.730Z,0.73
2023-08-20T08:51:01.950Z,1.10
2023-08-20T08:53:28.824Z,1.27
2023-08-20T08:55:55.386Z,0.82
2023-08-20T08:58:21.882Z,0.68
2023-08-20T09:00:48.820Z,1.20
2023-08-20T09:03:15.873Z,0.70
2023-08-20T09:05:49.799Z,0.90
2023-08-20T09:08:23.480Z,0.60
2023-08-20T09:10:54.008Z,0.73
2023-08-20T09:13:24.215Z,0.77
2023-08-20T09:15:54.602Z,1.08
2023-08-20T09:18:21.779Z,0.63
2023-08-20T09:20:49.698Z,0.57
2023-08-20T09:23:16.504Z,1.00
2023-08-20T09:25:43.738Z,0.50
2023-08-20T09:28:10.929Z,0.63
2023-08-20T09:30:38.343Z,0.63
2023-08-20T09:33:06.439Z,0.75
2023-08-20T09:35:33.407Z,0.45
2023-08-20T09:38:01.819Z,1.00
2023-08-20T09:40:28.607Z,0.70
2023-08-20T09:42:55.680Z,0.52
2023-08-20T09:45:22.468Z,0.70
2023-08-20T09:47:55.379Z,0.60
2023-08-20T09:50:22.826Z,0.90
2023-08-20T09:53:01.152Z,0.85
2023-08-20T09:55:30.934Z,0.52
2023-08-20T09:57:57.731Z,0.82
2023-08-20T10:00:24.371Z,0.50
2023-08-20T10:02:51.627Z,0.70
2023-08-20T10:05:18.306Z,0.55
2023-08-20T10:07:46.536Z,0.80
2023-08-20T10:10:14.572Z,0.50
2023-08-20T10:12:42.793Z,0.60
2023-08-20T10:15:10.715Z,0.60
2023-08-20T10:17:38.541Z,0.90
2023-08-20T10:20:06.047Z,0.60
2023-08-20T10:22:39.588Z,0.80
2023-08-20T10:25:07.042Z,0.85
2023-08-20T10:27:35.524Z,0.60
2023-08-20T10:30:03.815Z,0.50
2023-08-20T10:32:49.383Z,0.75
2023-08-20T10:35:26.952Z,0.90
2023-08-20T10:38:04.026Z,0.60
2023-08-20T10:40:50.394Z,0.65
2023-08-20T10:43:30.019Z,0.65
2023-08-20T10:46:10.213Z,0.52
2023-08-20T10:48:39.395Z,0.55
2023-08-20T10:51:10.230Z,0.85
2023-08-20T10:53:36.856Z,1.40
2023-08-20T10:56:10.218Z,0.60
2023-08-20T10:58:36.969Z,0.80
2023-08-20T11:01:23.860Z,1.05
2023-08-20T11:03:51.035Z,0.77
2023-08-20T11:06:18.327Z,0.70
2023-08-20T11:08:45.232Z,0.82
2023-08-20T11:11:12.763Z,1.00
2023-08-20T11:13:39.345Z,0.40
2023-08-20T11:16:06.875Z,0.70
2023-08-20T11:18:34.894Z,0.60
2023-08-20T11:21:01.749Z,0.68
2023-08-20T11:23:29.048Z,0.85
2023-08-20T11:25:55.604Z,0.40
2023-08-20T11:28:22.482Z,0.70
2023-08-20T11:30:49.094Z,0.70
2023-08-20T11:33:16.158Z,0.50
2023-08-20T11:35:42.694Z,0.93
2023-08-20T11:38:10.931Z,0.55
2023-08-20T11:40:37.756Z,0.80
2023-08-20T11:43:05.170Z,0.50
2023-08-20T11:45:31.787Z,0.57
2023-08-20T11:47:59.819Z,0.50
2023-08-20T11:50:26.350Z,0.57
2023-08-20T11:52:53.647Z,0.50
2023-08-20T11:55:27.066Z,0.40
2023-08-20T11:57:53.891Z,0.50
2023-08-20T12:00:27.928Z,0.50
2023-08-20T12:02:55.926Z,0.50
2023-08-20T12:05:29.139Z,0.80
2023-08-20T12:07:57.377Z,0.60
2023-08-20T12:10:24.068Z,0.88
2023-08-20T12:12:50.736Z,0.50
2023-08-20T12:15:17.793Z,0.85
2023-08-20T12:17:44.471Z,0.50
2023-08-20T12:20:13.646Z,0.50
2023-08-20T12:22:40.594Z,0.57
2023-08-20T12:25:07.684Z,0.50
2023-08-20T12:27:35.154Z,0.80
2023-08-20T12:30:01.881Z,0.73
2023-08-20T12:32:28.430Z,0.90
2023-08-20T12:34:54.969Z,0.70
2023-08-20T12:37:21.485Z,0.85
2023-08-20T12:39:47.983Z,1.30
2023-08-20T12:42:14.494Z,1.30
2023-08-20T12:44:41.023Z,1.15
2023-08-20T12:47:07.552Z,1.10
2023-08-20T12:49:34.074Z,0.90
2023-08-20T12:52:00.603Z,1.00
2023-08-20T12:54:27.102Z,0.98
2023-08-20T12:56:53.674Z,1.02
2023-08-20T12:59:20.269Z,0.82
2023-08-20T13:01:46.851Z,1.55
2023-08-20T13:04:13.623Z,1.15
2023-08-20T13:06:40.478Z,1.05
2023-08-20T13:09:08.006Z,0.98
2023-08-20T13:11:34.694Z,0.68
2023-08-20T13:14:01.321Z,1.42
2023-08-20T13:16:28.042Z,1.38
2023-08-20T13:18:54.716Z,1.10
2023-08-20T13:21:22.632Z,1.13
2023-08-20T13:23:49.121Z,1.10
2023-08-20T13:26:15.660Z,1.05
2023-08-20T13:28:42.184Z,0.93
2023-08-20T13:31:08.751Z,1.17
2023-08-20T13:33:35.341Z,1.08
2023-08-20T13:36:02.013Z,0.80
2023-08-20T13:38:28.830Z,0.95
2023-08-20T13:40:57.017Z,1.40
2023-08-20T13:43:24.514Z,1.10
2023-08-20T13:45:51.080Z,1.08
2023-08-20T13:48:17.596Z,1.05
2023-08-20T13:50:44.192Z,1.00
2023-08-20T13:53:11.549Z,1.15
2023-08-20T13:55:38.494Z,1.38
2023-08-20T13:58:05.098Z,0.98
2023-08-20T14:00:31.586Z,1.58
2023-08-20T14:02:58.943Z,0.90
2023-08-20T14:05:25.581Z,1.23
2023-08-20T14:07:52.174Z,1.10
2023-08-20T14:10:18.755Z,1.20
2023-08-20T14:12:45.497Z,0.80
2023-08-20T14:15:12.151Z,1.17
2023-08-20T14:17:38.817Z,1.20
2023-08-20T14:20:06.411Z,1.20
2023-08-20T14:22:32.915Z,0.93
2023-08-20T14:24:59.408Z,1.55
2023-08-20T14:27:25.951Z,1.23
2023-08-20T14:29:52.547Z,1.23
2023-08-20T14:32:19.053Z,1.00
2023-08-20T14:34:45.586Z,1.52
2023-08-20T14:37:14.427Z,1.00
2023-08-20T14:39:41.223Z,1.38
2023-08-20T14:42:07.783Z,1.10
2023-08-20T14:44:34.270Z,1.08
2023-08-20T14:47:00.829Z,0.93
2023-08-20T14:49:28.593Z,0.90
2023-08-20T14:52:03.011Z,1.02
2023-08-20T14:54:36.490Z,1.13
2023-08-20T14:57:03.589Z,1.20
2023-08-20T14:59:30.224Z,1.65
2023-08-20T15:01:56.780Z,0.70
2023-08-20T15:04:23.299Z,1.15
2023-08-20T15:06:49.825Z,0.95
2023-08-20T15:09:16.525Z,0.98
2023-08-20T15:11:43.514Z,1.05
2023-08-20T15:14:10.032Z,1.40
2023-08-20T15:16:36.590Z,0.90
2023-08-20T15:19:03.680Z,1.20
2023-08-20T15:21:30.241Z,1.48
2023-08-20T15:23:56.750Z,1.10
2023-08-20T15:26:24.012Z,1.00
2023-08-20T15:28:50.498Z,1.30
2023-08-20T15:31:17.063Z,1.50
2023-08-20T15:33:43.616Z,1.10
2023-08-20T15:36:10.119Z,1.00
2023-08-20T15:38:36.737Z,1.05
2023-08-20T15:41:03.503Z,1.17
2023-08-20T15:43:30.022Z,1.15
2023-08-20T15:45:56.683Z,0.95
2023-08-20T15:48:23.662Z,1.27
2023-08-20T15:50:50.209Z,1.17
2023-08-20T15:53:16.922Z,1.35
2023-08-20T15:55:43.446Z,1.10
2023-08-20T15:58:10.046Z,1.05
2023-08-20T16:00:36.740Z,1.70
2023-08-20T16:03:03.543Z,1.05
2023-08-20T16:05:30.130Z,1.10
2023-08-20T16:07:56.770Z,0.95
2023-08-20T16:10:23.486Z,0.90
2023-08-20T16:12:50.099Z,0.90
2023-08-20T16:15:16.660Z,0.80
2023-08-20T16:17:43.225Z,1.33
2023-08-20T16:20:09.949Z,1.17
2023-08-20T16:22:36.778Z,1.13
2023-08-20T16:25:06.333Z,1.00
2023-08-20T16:27:33.715Z,1.30
2023-08-20T16:30:01.608Z,0.88
2023-08-20T16:32:28.197Z,1.00
2023-08-20T16:34:54.801Z,0.95
2023-08-20T16:37:21.406Z,1.30
2023-08-20T16:39:47.947Z,1.00
2023-08-20T16:42:14.446Z,1.25
2023-08-20T16:44:40.963Z,0.88
2023-08-20T16:47:07.470Z,1.08
2023-08-20T16:49:34.529Z,0.75
2023-08-20T16:52:01.085Z,1.00
2023-08-20T16:54:27.585Z,1.55
2023-08-20T16:56:54.243Z,1.52
2023-08-20T16:59:20.804Z,1.20
2023-08-20T17:01:48.128Z,1.30
2023-08-20T17:04:15.512Z,1.17
2023-08-20T17:06:43.050Z,1.50
2023-08-20T17:09:09.543Z,0.90
2023-08-20T17:11:36.181Z,0.77
2023-08-20T17:14:03.539Z,0.90
2023-08-20T17:16:30.356Z,0.65
2023-08-20T17:18:57.295Z,1.17
2023-08-20T17:21:25.173Z,1.00
2023-08-20T17:23:51.827Z,1.02
2023-08-20T17:26:18.373Z,0.98
2023-08-20T17:28:44.887Z,0.55
2023-08-20T17:31:11.523Z,0.93
2023-08-20T17:33:38.203Z,1.20
2023-08-20T17:36:04.906Z,0.88
2023-08-20T17:38:31.507Z,1.00
2023-08-20T17:40:58.123Z,0.85
2023-08-20T17:43:24.621Z,0.95
2023-08-20T17:45:53.883Z,1.10
2023-08-20T17:48:20.481Z,1.45
2023-08-20T17:50:47.829Z,1.38
2023-08-20T17:53:14.325Z,1.15
2023-08-20T17:55:40.863Z,1.17
2023-08-20T17:58:08.768Z,1.38
2023-08-20T18:00:35.426Z,1.20
2023-08-20T18:03:02.047Z,1.30
2023-08-20T18:05:28.631Z,1.35
2023-08-20T18:07:57.117Z,0.93
2023-08-20T18:10:23.820Z,0.93
2023-08-20T18:12:50.394Z,0.90
2023-08-20T18:15:17.638Z,1.13
2023-08-20T18:17:44.218Z,1.25
2023-08-20T18:20:13.631Z,1.10
2023-08-20T18:22:40.311Z,1.17
2023-08-20T18:25:06.958Z,0.98
2023-08-20T18:27:33.480Z,0.85
2023-08-20T18:30:00.093Z,1.13
2023-08-20T18:32:26.695Z,1.05
2023-08-20T18:34:53.349Z,1.08
2023-08-20T18:37:19.856Z,0.77
2023-08-20T18:39:46.531Z,1.58
2023-08-20T18:42:13.444Z,0.80
2023-08-20T18:44:41.317Z,1.25
2023-08-20T18:47:07.972Z,1.20
2023-08-20T18:49:35.278Z,1.27
2023-08-20T18:52:01.859Z,1.40
2023-08-20T18:54:28.383Z,0.68
2023-08-20T18:56:54.882Z,1.27
2023-08-20T18:59:21.423Z,1.02
2023-08-20T19:01:49.969Z,1.25
2023-08-20T19:04:16.794Z,0.82
2023-08-20T19:06:43.621Z,1.48
2023-08-20T19:09:10.546Z,1.40
2023-08-20T19:11:37.058Z,1.25
2023-08-20T19:14:04.190Z,0.80
2023-08-20T19:16:30.931Z,1.40
2023-08-20T19:18:57.525Z,1.42
2023-08-20T19:21:24.121Z,1.17
2023-08-20T19:23:51.486Z,1.13
2023-08-20T19:26:18.018Z,1.27
2023-08-20T19:28:44.908Z,1.10
2023-08-20T19:31:11.498Z,1.30
2023-08-20T19:33:38.021Z,1.08
2023-08-20T19:36:04.820Z,1.25
2023-08-20T19:38:32.158Z,0.93
2023-08-20T19:40:58.798Z,1.13
2023-08-20T19:43:25.391Z,1.33
2023-08-20T19:45:53.971Z,1.15
2023-08-20T19:48:20.522Z,0.90
2023-08-20T19:50:47.127Z,1.55
2023-08-20T19:53:13.789Z,1.15
2023-08-20T19:55:40.382Z,0.98
2023-08-20T19:58:07.022Z,1.40
2023-08-20T20:00:33.613Z,1.23
2023-08-20T20:03:00.230Z,0.88
2023-08-20T20:05:29.595Z,0.93
2023-08-20T20:07:56.299Z,1.17
2023-08-20T20:10:22.836Z,1.00
2023-08-20T20:12:49.397Z,0.88
2023-08-20T20:15:16.187Z,1.35
2023-08-20T20:17:42.792Z,1.05
2023-08-20T20:20:12.163Z,1.10
2023-08-20T20:22:39.805Z,1.27
2023-08-20T20:25:06.535Z,1.33
2023-08-20T20:27:35.609Z,1.00
2023-08-20T20:30:03.195Z,1.25
2023-08-20T20:32:29.714Z,1.20
2023-08-20T20:34:57.194Z,1.48
2023-08-20T20:37:23.693Z,1.10
2023-08-20T20:39:50.188Z,1.00
2023-08-20T20:42:16.830Z,1.20
2023-08-20T20:44:44.023Z,1.73
2023-08-20T20:47:10.523Z,1.42
2023-08-20T20:49:37.301Z,1.00
2023-08-20T20:52:04.382Z,0.90
2023-08-20T20:54:30.924Z,1.15
2023-08-20T20:56:57.509Z,1.30
2023-08-20T20:59:24.002Z,1.20
2023-08-20T21:01:50.503Z,0.93
2023-08-20T21:04:17.081Z,1.38
2023-08-20T21:06:43.586Z,1.83
2023-08-20T21:09:10.129Z,1.13
2023-08-20T21:11:36.748Z,1.35
2023-08-20T21:14:03.381Z,1.13
2023-08-20T21:16:29.911Z,1.20
2023-08-20T21:18:56.556Z,1.20
2023-08-20T21:21:23.118Z,3.08
2023-08-20T21:23:49.681Z,1.45
2023-08-20T21:26:16.193Z,1.30
2023-08-20T21:28:42.714Z,1.48
2023-08-20T21:31:09.268Z,1.40
2023-08-20T21:33:35.835Z,1.25
2023-08-20T21:36:02.405Z,1.60
2023-08-20T21:38:28.950Z,1.33
2023-08-20T21:40:55.450Z,1.52
2023-08-20T21:43:21.960Z,1.35
2023-08-20T21:45:48.532Z,1.95
2023-08-20T21:48:15.158Z,1.38
2023-08-20T21:50:41.742Z,1.35
2023-08-20T21:53:08.301Z,2.17
2023-08-20T21:55:35.075Z,1.35
2023-08-20T21:58:01.598Z,1.30
2023-08-20T22:00:28.524Z,1.35
2023-08-20T22:02:55.174Z,1.23
2023-08-20T22:05:22.168Z,1.45
2023-08-20T22:07:49.969Z,1.45
2023-08-20T22:10:19.028Z,1.52
2023-08-20T22:12:46.352Z,1.40
2023-08-20T22:15:12.982Z,1.63
2023-08-20T22:17:40.203Z,1.05
2023-08-20T22:20:11.305Z,1.30
2023-08-20T22:22:39.313Z,1.10
2023-08-20T22:25:10.225Z,1.42
2023-08-20T22:27:39.044Z,1.42
2023-08-20T22:30:06.971Z,1.35
2023-08-20T22:32:33.737Z,1.00
2023-08-20T22:35:00.292Z,1.40
2023-08-20T22:37:26.828Z,1.67
2023-08-20T22:39:53.411Z,1.40
2023-08-20T22:42:21.461Z,1.30
2023-08-20T22:44:48.002Z,1.30
2023-08-20T22:47:14.583Z,1.30
2023-08-20T22:49:41.153Z,1.27
2023-08-20T22:52:07.706Z,1.85
2023-08-20T22:54:34.264Z,1.08
2023-08-20T22:57:00.810Z,1.40
2023-08-20T22:59:27.344Z,1.45
2023-08-20T23:01:53.848Z,1.60
2023-08-20T23:04:20.458Z,1.30
2023-08-20T23:06:47.052Z,1.23
2023-08-20T23:09:13.612Z,1.38
2023-08-20T23:11:40.155Z,1.38
2023-08-20T23:14:06.799Z,1.25
2023-08-20T23:16:33.328Z,1.50
2023-08-20T23:18:59.966Z,1.33
2023-08-20T23:21:26.497Z,1.52
2023-08-20T23:23:52.993Z,1.77
2023-08-20T23:26:19.503Z,1.65
2023-08-20T23:28:46.070Z,1.80
2023-08-20T23:31:12.595Z,1.48
2023-08-20T23:33:39.154Z,1.73
2023-08-20T23:36:05.833Z,1.27
2023-08-20T23:38:39.408Z,1.83
2023-08-20T23:41:05.945Z,1.88
2023-08-20T23:43:32.456Z,1.50
2023-08-20T23:45:59.007Z,1.20
2023-08-20T23:48:25.567Z,1.63
2023-08-20T23:50:52.089Z,1.17
2023-08-20T23:53:18.735Z,1.80
2023-08-20T23:55:45.314Z,1.67
2023-08-20T23:58:11.810Z,1.70
